FNHU/NOV METAR and TAF weather

Enter ICAO airport designator
Station Type Date Time Source
FNHU METAR 2022/06/26 14:00 UTC NOAA

FNHU 261400Z 07007KT CAVOK 24/05 Q1022


Station Type Date Time Source
FNHU Decoded METAR 2022/06/26 14:00 UTC NOAA

Huambo Nova Lisboa , Angola (FNHU) 12-48S 015-45E 1701M
Jun 26, 2022 - 10:00 AM EDT / 2022.06.26 1400 UTC
Wind: from the ENE (070 degrees) at 8 MPH (7 KT):0
Visibility: greater than 7 mile(s):0
Temperature: 75 F (24 C)
Dew Point: 41 F (5 C)
Relative Humidity: 29%
Pressure (altimeter): 30.18 in. Hg (1022 hPa)
ob: FNHU 261400Z 07007KT CAVOK 24/05 Q1022
cycle: 14

Station Type Date Time Source
FNHU TAF 2022/06/26 12:15 UTC NOAA

TAF TAF FNHU 261100Z 2612/2624 24006KT CAVOK

Example: see airport list